Aby, United Kingdom
Current Conditions -  °F | °C
As of 8:50 AM on Thursday 27 Nov 2014 (Local Time) from EGXS Reporting Station
Overcast Overcast  
Wind Chill: 45°   Ceiling: 200
Heat Index: 48°   Visibility: 2mi
Dew Point: 48°   Wind: 8mph
Humidity: 100%   Direction: 100°E
Pressure: 29.62"   Gusts: NA
Location:  53.26°N, 0.17°E
Report Text: EGXS 270850Z AUTO 10007KT 3300 // OVC002/// 09/09 Q1003
Loading
Personal Weather Stations






























Interactive Weather Map New forecast layout! Learn more

10-Day Weather Forecast

Advertisements
Track Severe Weather on mobile